createdAt,value
2018-04-07T00:02:25.723Z,16.43
2018-04-07T00:04:52.234Z,16.44
2018-04-07T00:07:19.485Z,16.43
2018-04-07T00:09:45.999Z,16.44
2018-04-07T00:12:12.481Z,16.44
2018-04-07T00:14:38.989Z,16.43
2018-04-07T00:17:06.248Z,16.43
2018-04-07T00:19:32.825Z,16.43
2018-04-07T00:22:00.074Z,16.45
2018-04-07T00:24:26.584Z,16.43
2018-04-07T00:26:53.070Z,16.43
2018-04-07T00:29:19.573Z,16.44
2018-04-07T00:31:46.830Z,16.43
2018-04-07T00:34:13.340Z,16.44
2018-04-07T00:36:39.824Z,16.44
2018-04-07T00:39:06.329Z,16.43
2018-04-07T00:41:33.580Z,16.43
2018-04-07T00:44:00.088Z,16.44
2018-04-07T00:46:26.579Z,16.44
2018-04-07T00:48:53.088Z,16.43
2018-04-07T00:51:20.338Z,16.43
2018-04-07T00:53:47.626Z,16.43
2018-04-07T00:56:14.111Z,16.43
2018-04-07T00:58:41.360Z,16.43
2018-04-07T01:01:07.874Z,16.42
2018-04-07T01:03:34.356Z,16.43
2018-04-07T01:06:00.869Z,16.43
2018-04-07T01:08:27.358Z,16.43
2018-04-07T01:10:54.294Z,16.43
2018-04-07T01:13:21.570Z,16.42
2018-04-07T01:15:48.056Z,16.43
2018-04-07T01:18:14.568Z,16.42
2018-04-07T01:20:41.053Z,16.42
2018-04-07T01:23:07.565Z,16.43
2018-04-07T01:25:34.072Z,16.43
2018-04-07T01:28:00.625Z,16.43
2018-04-07T01:30:27.145Z,16.46
2018-04-07T01:32:53.629Z,16.46
2018-04-07T01:35:20.876Z,16.43
2018-04-07T01:37:47.395Z,16.44
2018-04-07T01:40:13.882Z,16.44
2018-04-07T01:42:40.608Z,16.43
2018-04-07T01:45:07.089Z,16.43
2018-04-07T01:47:33.628Z,16.42
2018-04-07T01:50:00.136Z,16.43
2018-04-07T01:52:26.614Z,16.43
2018-04-07T01:54:53.116Z,16.43
2018-04-07T01:57:19.600Z,16.43
2018-04-07T01:59:46.118Z,16.43
2018-04-07T02:02:13.373Z,16.43
2018-04-07T02:04:39.965Z,16.43
2018-04-07T02:07:06.474Z,16.43
2018-04-07T02:09:32.959Z,16.43
2018-04-07T02:12:00.244Z,16.43
2018-04-07T02:14:27.493Z,16.43
2018-04-07T02:16:53.981Z,16.43
2018-04-07T02:19:21.256Z,16.43
2018-04-07T02:21:48.508Z,16.43
2018-04-07T02:24:15.024Z,16.42
2018-04-07T02:26:41.512Z,16.42
2018-04-07T02:29:07.996Z,16.42
2018-04-07T02:31:34.506Z,16.42
2018-04-07T02:34:01.046Z,16.43
2018-04-07T02:36:27.561Z,16.43
2018-04-07T02:38:54.096Z,16.42
2018-04-07T02:41:20.576Z,16.43
2018-04-07T02:43:47.084Z,16.42
2018-04-07T02:46:13.569Z,16.42
2018-04-07T02:48:40.091Z,16.43
2018-04-07T02:51:07.336Z,16.42
2018-04-07T02:53:33.820Z,16.42
2018-04-07T02:56:01.108Z,16.45
2018-04-07T02:58:28.362Z,16.43
2018-04-07T03:00:54.899Z,16.43
2018-04-07T03:03:21.400Z,16.43
2018-04-07T03:05:48.645Z,16.43
2018-04-07T03:08:15.157Z,16.43
2018-04-07T03:10:41.641Z,16.43
2018-04-07T03:13:08.148Z,16.43
2018-04-07T03:15:35.402Z,16.43
2018-04-07T03:18:01.916Z,16.43
2018-04-07T03:20:28.448Z,16.43
2018-04-07T03:22:55.700Z,16.43
2018-04-07T03:25:22.213Z,16.43
2018-04-07T03:27:48.693Z,16.43
2018-04-07T03:30:15.210Z,16.43
2018-04-07T03:32:42.456Z,16.43
2018-04-07T03:35:08.982Z,16.43
2018-04-07T03:37:35.492Z,16.42
2018-04-07T03:40:02.745Z,16.42
2018-04-07T03:42:29.272Z,16.43
2018-04-07T03:44:55.753Z,16.42
2018-04-07T03:47:22.236Z,16.42
2018-04-07T03:49:48.748Z,16.43
2018-04-07T03:52:15.232Z,16.42
2018-04-07T03:54:41.769Z,16.42
2018-04-07T03:57:08.253Z,16.42
2018-04-07T03:59:34.861Z,16.43
2018-04-07T04:02:01.381Z,16.43
2018-04-07T04:04:27.865Z,16.42
2018-04-07T04:06:55.146Z,16.43
2018-04-07T04:09:22.396Z,16.44
2018-04-07T04:11:48.876Z,16.43
2018-04-07T04:14:16.153Z,16.43
2018-04-07T04:16:42.636Z,16.42
2018-04-07T04:19:09.149Z,16.42
2018-04-07T04:21:35.644Z,16.43
2018-04-07T04:24:02.928Z,16.42
2018-04-07T04:26:29.405Z,16.42
2018-04-07T04:28:55.885Z,16.42
2018-04-07T04:31:22.392Z,16.42
2018-04-07T04:33:49.642Z,16.42
2018-04-07T04:36:16.156Z,16.41
2018-04-07T04:38:42.637Z,16.42
2018-04-07T04:41:09.255Z,16.42
2018-04-07T04:43:36.507Z,16.42
2018-04-07T04:46:03.005Z,16.42
2018-04-07T04:48:29.508Z,16.42
2018-04-07T04:50:55.992Z,16.42
2018-04-07T04:53:22.497Z,16.42
2018-04-07T04:55:48.980Z,16.42
2018-04-07T04:58:15.497Z,16.42
2018-04-07T05:00:41.982Z,16.42
2018-04-07T05:03:08.467Z,16.41
2018-04-07T05:05:35.003Z,16.42
2018-04-07T05:08:01.488Z,16.42
2018-04-07T05:10:28.004Z,16.41
2018-04-07T05:12:54.484Z,16.41
2018-04-07T05:15:20.993Z,16.41
2018-04-07T05:17:48.246Z,16.41
2018-04-07T05:20:14.766Z,16.40
2018-04-07T05:22:41.257Z,16.40
2018-04-07T05:25:07.854Z,16.40
2018-04-07T05:27:35.117Z,16.40
2018-04-07T05:30:02.360Z,16.40
2018-04-07T05:32:28.866Z,16.40
2018-04-07T05:34:56.102Z,16.41
2018-04-07T05:37:22.574Z,16.40
2018-04-07T05:39:49.166Z,16.40
2018-04-07T05:42:16.418Z,16.40
2018-04-07T05:44:44.426Z,16.40
2018-04-07T05:47:11.674Z,16.40
2018-04-07T05:49:38.185Z,16.40
2018-04-07T05:52:04.669Z,16.40
2018-04-07T05:54:31.146Z,16.40
2018-04-07T05:56:57.624Z,16.39
2018-04-07T05:59:24.097Z,16.40
2018-04-07T06:01:51.358Z,16.41
2018-04-07T06:04:17.841Z,16.38
2018-04-07T06:06:45.114Z,16.40
2018-04-07T06:09:12.367Z,16.39
2018-04-07T06:11:38.843Z,16.38
2018-04-07T06:14:06.124Z,16.40
2018-04-07T06:16:33.362Z,16.39
2018-04-07T06:18:59.835Z,16.38
2018-04-07T06:21:26.341Z,16.38
2018-04-07T06:23:52.834Z,16.38
2018-04-07T06:26:19.342Z,16.38
2018-04-07T06:28:46.590Z,16.38
2018-04-07T06:31:13.085Z,16.38
2018-04-07T06:33:40.356Z,16.38
2018-04-07T06:36:07.626Z,16.38
2018-04-07T06:38:34.127Z,16.35
2018-04-07T06:41:00.613Z,16.37
2018-04-07T06:43:27.091Z,16.37
2018-04-07T06:45:53.596Z,16.37
2018-04-07T06:48:20.144Z,16.37
2018-04-07T06:50:46.632Z,16.38
2018-04-07T06:53:13.102Z,16.38
2018-04-07T06:55:39.577Z,16.38
2018-04-07T06:58:06.056Z,16.39
2018-04-07T07:00:33.274Z,16.40
2018-04-07T07:02:59.786Z,16.40
2018-04-07T07:05:26.246Z,16.40
2018-04-07T07:07:52.811Z,16.38
2018-04-07T07:10:20.072Z,16.38
2018-04-07T07:12:46.524Z,16.36
2018-04-07T07:15:13.103Z,16.40
2018-04-07T07:17:39.570Z,16.38
2018-04-07T07:20:06.836Z,16.38
2018-04-07T07:22:33.398Z,16.37
2018-04-07T07:24:59.863Z,16.38
2018-04-07T07:27:27.146Z,16.37
2018-04-07T07:29:54.384Z,16.38
2018-04-07T07:32:20.854Z,16.39
2018-04-07T07:34:47.355Z,16.38
2018-04-07T07:37:13.838Z,16.37
2018-04-07T07:39:40.382Z,16.37
2018-04-07T07:42:06.902Z,16.37
2018-04-07T07:44:33.395Z,16.37
2018-04-07T07:46:59.883Z,16.37
2018-04-07T07:49:26.362Z,16.38
2018-04-07T07:51:52.863Z,16.38
2018-04-07T07:54:20.086Z,16.38
2018-04-07T07:56:46.595Z,16.41
2018-04-07T07:59:13.843Z,16.40
2018-04-07T08:01:40.341Z,16.38
2018-04-07T08:04:06.816Z,16.09
2018-04-07T08:06:33.286Z,16.00
2018-04-07T08:08:59.804Z,16.07
2018-04-07T08:11:27.056Z,16.06
2018-04-07T08:13:53.640Z,16.14
2018-04-07T08:16:20.899Z,16.21
2018-04-07T08:18:47.370Z,16.17
2018-04-07T08:21:14.643Z,16.19
2018-04-07T08:23:42.657Z,16.19
2018-04-07T08:26:09.894Z,16.19
2018-04-07T08:28:36.392Z,16.23
2018-04-07T08:31:03.630Z,16.22
2018-04-07T08:33:30.175Z,16.19
2018-04-07T08:35:56.643Z,16.18
2018-04-07T08:38:23.122Z,16.17
2018-04-07T08:40:49.615Z,16.19
2018-04-07T08:43:16.128Z,16.16
2018-04-07T08:45:42.620Z,16.17
2018-04-07T08:48:09.855Z,16.15
2018-04-07T08:50:36.372Z,16.29
2018-04-07T08:53:02.832Z,16.35
2018-04-07T08:55:29.308Z,16.32
2018-04-07T08:57:55.769Z,16.30
2018-04-07T09:00:22.236Z,16.38
2018-04-07T09:02:48.712Z,16.40
2018-04-07T09:05:15.195Z,16.41
2018-04-07T09:07:41.716Z,16.42
2018-04-07T09:10:08.187Z,16.42
2018-04-07T09:12:34.640Z,16.43
2018-04-07T09:15:01.144Z,16.43
2018-04-07T09:17:28.406Z,16.43
2018-04-07T09:19:54.920Z,16.44
2018-04-07T09:22:21.385Z,16.44
2018-04-07T09:24:47.869Z,16.44
2018-04-07T09:27:14.350Z,16.45
2018-04-07T09:29:41.607Z,16.44
2018-04-07T09:32:08.084Z,16.44
2018-04-07T09:34:34.551Z,16.44
2018-04-07T09:37:01.067Z,16.44
2018-04-07T09:39:27.524Z,16.43
2018-04-07T09:41:53.991Z,16.43
2018-04-07T09:44:20.483Z,16.43
2018-04-07T09:46:47.714Z,16.44
2018-04-07T09:49:14.334Z,16.43
2018-04-07T09:51:41.557Z,16.44
2018-04-07T09:54:08.021Z,16.44
2018-04-07T09:56:34.546Z,16.46
2018-04-07T09:59:01.018Z,16.46
2018-04-07T10:01:27.519Z,16.46
2018-04-07T10:03:53.973Z,16.47
2018-04-07T10:06:20.440Z,16.44
2018-04-07T10:08:46.930Z,16.44
2018-04-07T10:11:13.398Z,16.46
2018-04-07T10:13:39.919Z,16.48
2018-04-07T10:16:07.177Z,16.47
2018-04-07T10:18:33.646Z,16.46
2018-04-07T10:21:00.124Z,16.49
2018-04-07T10:23:27.380Z,16.49
2018-04-07T10:25:53.873Z,16.48
2018-04-07T10:28:20.388Z,16.47
2018-04-07T10:30:46.896Z,16.48
2018-04-07T10:33:13.380Z,16.47
2018-04-07T10:35:39.855Z,16.47
2018-04-07T10:38:06.356Z,16.48
2018-04-07T10:40:33.580Z,16.47
2018-04-07T10:43:00.217Z,16.45
2018-04-07T10:45:26.705Z,16.43
2018-04-07T10:47:53.165Z,16.42
2018-04-07T10:50:19.662Z,16.40
2018-04-07T10:52:46.936Z,16.42
2018-04-07T10:55:13.439Z,16.36
2018-04-07T10:57:39.924Z,16.35
2018-04-07T11:00:06.404Z,16.33
2018-04-07T11:02:32.901Z,16.36
2018-04-07T11:04:59.374Z,16.35
2018-04-07T11:07:25.885Z,16.37
2018-04-07T11:09:52.368Z,16.38
2018-04-07T11:12:19.605Z,16.34
2018-04-07T11:14:46.883Z,16.34
2018-04-07T11:17:13.365Z,16.38
2018-04-07T11:19:40.635Z,16.38
2018-04-07T11:22:07.092Z,16.39
2018-04-07T11:24:33.547Z,16.42
2018-04-07T11:27:00.125Z,16.46
2018-04-07T11:29:27.348Z,16.47
2018-04-07T11:31:53.852Z,16.48
2018-04-07T11:34:20.330Z,16.51
2018-04-07T11:36:46.837Z,16.55
2018-04-07T11:39:13.331Z,16.61
2018-04-07T11:41:40.572Z,16.71
2018-04-07T11:44:07.066Z,16.52
2018-04-07T11:46:33.556Z,16.45
2018-04-07T11:49:00.013Z,16.44
2018-04-07T11:51:26.498Z,16.46
2018-04-07T11:53:52.949Z,16.52
2018-04-07T11:56:19.440Z,16.54
2018-04-07T11:58:45.897Z,16.54
2018-04-07T12:01:12.401Z,16.63
2018-04-07T12:03:39.657Z,16.64
2018-04-07T12:06:06.890Z,16.61
2018-04-07T12:08:33.393Z,16.59
2018-04-07T12:11:00.685Z,16.59
2018-04-07T12:13:27.950Z,16.59
2018-04-07T12:15:59.248Z,16.59
2018-04-07T12:18:26.819Z,16.59
2018-04-07T12:20:54.344Z,16.59
2018-04-07T12:23:21.273Z,16.60
2018-04-07T12:25:48.866Z,16.60
2018-04-07T12:28:15.825Z,16.60
2018-04-07T12:30:43.060Z,16.50
2018-04-07T12:33:09.571Z,16.56
2018-04-07T12:35:36.053Z,16.58
2018-04-07T12:38:02.551Z,16.59
2018-04-07T12:40:29.029Z,16.59
2018-04-07T12:42:56.276Z,16.60
2018-04-07T12:45:22.774Z,16.60
2018-04-07T12:47:50.010Z,16.60
